sensor_id;sensor_type;location;lat;lon;timestamp;noise_LAeq;noise_LA_min;noise_LA_max;noise_LA01;noise_LA95
45478;Laerm;31227;47.986;11.868;2023-02-18T00:01:07;40.82;33.55;66.70;;
45478;Laerm;31227;47.986;11.868;2023-02-18T00:03:33;39.45;33.90;51.92;;
45478;Laerm;31227;47.986;11.868;2023-02-18T00:05:58;39.57;33.90;62.99;;
45478;Laerm;31227;47.986;11.868;2023-02-18T00:08:23;38.36;32.93;51.41;;
45478;Laerm;31227;47.986;11.868;2023-02-18T00:10:48;39.27;33.90;54.89;;
45478;Laerm;31227;47.986;11.868;2023-02-18T00:13:14;41.30;33.44;66.95;;
45478;Laerm;31227;47.986;11.868;2023-02-18T00:15:39;42.29;33.44;66.32;;
45478;Laerm;31227;47.986;11.868;2023-02-18T00:18:04;39.64;32.35;59.60;;
45478;Laerm;31227;47.986;11.868;2023-02-18T00:20:30;38.66;32.93;49.53;;
45478;Laerm;31227;47.986;11.868;2023-02-18T00:22:57;40.34;34.31;61.47;;
45478;Laerm;31227;47.986;11.868;2023-02-18T00:25:22;39.01;33.44;52.33;;
45478;Laerm;31227;47.986;11.868;2023-02-18T00:27:47;37.69;32.35;42.82;;
45478;Laerm;31227;47.986;11.868;2023-02-18T00:30:13;39.61;33.44;57.49;;
45478;Laerm;31227;47.986;11.868;2023-02-18T00:32:38;38.34;32.35;50.02;;
45478;Laerm;31227;47.986;11.868;2023-02-18T00:35:03;38.23;33.44;49.97;;
45478;Laerm;31227;47.986;11.868;2023-02-18T00:37:29;41.29;33.90;66.27;;
45478;Laerm;31227;47.986;11.868;2023-02-18T00:39:54;38.37;32.93;52.42;;
45478;Laerm;31227;47.986;11.868;2023-02-18T00:42:19;40.18;33.44;63.56;;
45478;Laerm;31227;47.986;11.868;2023-02-18T00:44:45;41.82;33.44;65.18;;
45478;Laerm;31227;47.986;11.868;2023-02-18T00:47:10;38.40;33.90;45.77;;
45478;Laerm;31227;47.986;11.868;2023-02-18T00:49:35;38.40;33.44;44.07;;
45478;Laerm;31227;47.986;11.868;2023-02-18T00:52:00;37.98;32.35;52.19;;
45478;Laerm;31227;47.986;11.868;2023-02-18T00:54:25;38.39;32.93;55.36;;
45478;Laerm;31227;47.986;11.868;2023-02-18T00:56:51;38.00;32.93;45.07;;
45478;Laerm;31227;47.986;11.868;2023-02-18T00:59:16;38.09;33.55;44.51;;
45478;Laerm;31227;47.986;11.868;2023-02-18T01:01:41;38.95;33.44;62.78;;
45478;Laerm;31227;47.986;11.868;2023-02-18T01:04:06;38.40;32.35;53.63;;
45478;Laerm;31227;47.986;11.868;2023-02-18T01:06:31;37.94;32.35;44.03;;
45478;Laerm;31227;47.986;11.868;2023-02-18T01:08:57;38.59;33.44;53.01;;
45478;Laerm;31227;47.986;11.868;2023-02-18T01:11:22;38.64;33.44;55.83;;
45478;Laerm;31227;47.986;11.868;2023-02-18T01:13:47;37.89;33.44;43.49;;
45478;Laerm;31227;47.986;11.868;2023-02-18T01:16:12;38.40;32.93;47.79;;
45478;Laerm;31227;47.986;11.868;2023-02-18T01:18:38;38.10;33.90;44.94;;
45478;Laerm;31227;47.986;11.868;2023-02-18T01:21:04;38.07;32.93;48.58;;
45478;Laerm;31227;47.986;11.868;2023-02-18T01:23:32;38.22;32.35;53.39;;
45478;Laerm;31227;47.986;11.868;2023-02-18T01:25:57;38.99;32.93;50.95;;
45478;Laerm;31227;47.986;11.868;2023-02-18T01:28:22;38.22;33.44;47.42;;
45478;Laerm;31227;47.986;11.868;2023-02-18T01:30:49;38.27;32.93;47.57;;
45478;Laerm;31227;47.986;11.868;2023-02-18T01:33:15;38.11;32.35;45.94;;
45478;Laerm;31227;47.986;11.868;2023-02-18T01:35:40;37.65;33.44;43.04;;
45478;Laerm;31227;47.986;11.868;2023-02-18T01:38:05;38.44;33.44;53.05;;
45478;Laerm;31227;47.986;11.868;2023-02-18T01:40:30;37.92;32.35;50.06;;
45478;Laerm;31227;47.986;11.868;2023-02-18T01:42:56;38.10;32.93;45.63;;
45478;Laerm;31227;47.986;11.868;2023-02-18T01:48:10;38.14;33.44;49.90;;
45478;Laerm;31227;47.986;11.868;2023-02-18T01:50:37;38.77;33.44;59.31;;
45478;Laerm;31227;47.986;11.868;2023-02-18T01:53:03;40.13;32.93;63.70;;
45478;Laerm;31227;47.986;11.868;2023-02-18T01:55:29;38.37;33.90;50.30;;
45478;Laerm;31227;47.986;11.868;2023-02-18T01:57:54;37.88;33.44;44.58;;
45478;Laerm;31227;47.986;11.868;2023-02-18T02:00:20;37.68;33.44;43.09;;
45478;Laerm;31227;47.986;11.868;2023-02-18T02:02:49;38.03;33.44;44.97;;
45478;Laerm;31227;47.986;11.868;2023-02-18T02:05:15;37.91;32.93;43.63;;
45478;Laerm;31227;47.986;11.868;2023-02-18T02:07:40;37.77;33.44;42.35;;
45478;Laerm;31227;47.986;11.868;2023-02-18T02:10:06;38.02;32.93;46.91;;
45478;Laerm;31227;47.986;11.868;2023-02-18T02:15:12;37.79;32.93;43.49;;
45478;Laerm;31227;47.986;11.868;2023-02-18T02:17:52;37.84;32.93;45.72;;
45478;Laerm;31227;47.986;11.868;2023-02-18T02:23:30;38.36;31.68;59.08;;
45478;Laerm;31227;47.986;11.868;2023-02-18T02:28:36;38.19;31.68;49.72;;
45478;Laerm;31227;47.986;11.868;2023-02-18T02:33:54;37.79;30.54;46.15;;
45478;Laerm;31227;47.986;11.868;2023-02-18T02:36:27;37.52;32.35;42.29;;
45478;Laerm;31227;47.986;11.868;2023-02-18T02:38:59;38.14;32.93;44.87;;
45478;Laerm;31227;47.986;11.868;2023-02-18T02:44:18;38.52;32.35;51.33;;
45478;Laerm;31227;47.986;11.868;2023-02-18T02:46:45;39.76;31.68;56.02;;
45478;Laerm;31227;47.986;11.868;2023-02-18T02:51:45;38.75;30.89;53.10;;
45478;Laerm;31227;47.986;11.868;2023-02-18T02:56:39;38.29;32.93;51.83;;
45478;Laerm;31227;47.986;11.868;2023-02-18T02:59:05;38.04;32.93;49.89;;
45478;Laerm;31227;47.986;11.868;2023-02-18T03:04:05;37.75;32.93;45.80;;
45478;Laerm;31227;47.986;11.868;2023-02-18T03:11:43;38.86;31.68;51.52;;
45478;Laerm;31227;47.986;11.868;2023-02-18T03:18:28;38.14;31.68;53.13;;
45478;Laerm;31227;47.986;11.868;2023-02-18T03:20:59;39.59;32.93;61.10;;
45478;Laerm;31227;47.986;11.868;2023-02-18T03:23:28;38.54;32.93;54.08;;
45478;Laerm;31227;47.986;11.868;2023-02-18T03:25:58;38.38;32.58;57.21;;
45478;Laerm;31227;47.986;11.868;2023-02-18T03:28:25;40.58;33.44;61.93;;
45478;Laerm;31227;47.986;11.868;2023-02-18T03:30:54;38.73;32.93;54.00;;
45478;Laerm;31227;47.986;11.868;2023-02-18T03:33:23;46.30;33.90;70.25;;
45478;Laerm;31227;47.986;11.868;2023-02-18T03:35:49;38.40;32.93;53.14;;
45478;Laerm;31227;47.986;11.868;2023-02-18T03:38:17;38.15;33.44;50.07;;
45478;Laerm;31227;47.986;11.868;2023-02-18T03:40:43;43.04;32.93;66.54;;
45478;Laerm;31227;47.986;11.868;2023-02-18T03:43:08;42.29;33.44;65.56;;
45478;Laerm;31227;47.986;11.868;2023-02-18T03:45:34;37.86;32.93;45.83;;
45478;Laerm;31227;47.986;11.868;2023-02-18T03:47:59;38.15;32.93;56.15;;
45478;Laerm;31227;47.986;11.868;2023-02-18T03:50:24;37.94;33.44;47.63;;
45478;Laerm;31227;47.986;11.868;2023-02-18T03:52:49;38.08;32.93;52.04;;
45478;Laerm;31227;47.986;11.868;2023-02-18T03:55:15;38.99;33.44;53.53;;
45478;Laerm;31227;47.986;11.868;2023-02-18T03:57:40;38.76;31.68;55.18;;
45478;Laerm;31227;47.986;11.868;2023-02-18T04:00:05;37.92;32.93;45.11;;
45478;Laerm;31227;47.986;11.868;2023-02-18T04:02:31;38.10;31.68;48.76;;
45478;Laerm;31227;47.986;11.868;2023-02-18T04:04:57;37.39;32.35;42.41;;
45478;Laerm;31227;47.986;11.868;2023-02-18T04:07:22;37.35;32.58;42.53;;
45478;Laerm;31227;47.986;11.868;2023-02-18T04:09:47;37.57;33.44;44.19;;
45478;Laerm;31227;47.986;11.868;2023-02-18T04:12:12;37.44;32.35;44.39;;
45478;Laerm;31227;47.986;11.868;2023-02-18T04:14:38;41.28;31.68;62.05;;
45478;Laerm;31227;47.986;11.868;2023-02-18T04:17:03;43.00;34.31;52.45;;
45478;Laerm;31227;47.986;11.868;2023-02-18T04:19:28;42.53;35.04;53.93;;
45478;Laerm;31227;47.986;11.868;2023-02-18T04:21:53;38.10;29.92;46.25;;
45478;Laerm;31227;47.986;11.868;2023-02-18T04:24:18;37.84;30.89;52.00;;
45478;Laerm;31227;47.986;11.868;2023-02-18T04:26:44;38.63;32.93;54.08;;
45478;Laerm;31227;47.986;11.868;2023-02-18T04:29:09;37.62;29.92;44.27;;
45478;Laerm;31227;47.986;11.868;2023-02-18T04:31:34;42.39;29.92;64.29;;
45478;Laerm;31227;47.986;11.868;2023-02-18T04:33:59;38.02;32.35;49.60;;
45478;Laerm;31227;47.986;11.868;2023-02-18T04:36:24;40.13;32.93;62.67;;
45478;Laerm;31227;47.986;11.868;2023-02-18T04:38:50;37.73;32.93;48.42;;
45478;Laerm;31227;47.986;11.868;2023-02-18T04:41:15;38.76;32.35;56.63;;
45478;Laerm;31227;47.986;11.868;2023-02-18T04:43:40;39.14;32.93;56.96;;
45478;Laerm;31227;47.986;11.868;2023-02-18T04:46:05;39.63;33.44;56.39;;
45478;Laerm;31227;47.986;11.868;2023-02-18T04:48:30;42.43;32.35;65.33;;
45478;Laerm;31227;47.986;11.868;2023-02-18T04:50:55;38.34;32.93;46.23;;
45478;Laerm;31227;47.986;11.868;2023-02-18T04:53:21;38.39;32.35;47.20;;
45478;Laerm;31227;47.986;11.868;2023-02-18T04:55:50;38.16;30.89;52.48;;
45478;Laerm;31227;47.986;11.868;2023-02-18T04:58:15;38.72;32.35;54.02;;
45478;Laerm;31227;47.986;11.868;2023-02-18T05:00:40;38.16;32.35;47.43;;
45478;Laerm;31227;47.986;11.868;2023-02-18T05:03:06;38.12;32.35;54.14;;
45478;Laerm;31227;47.986;11.868;2023-02-18T05:05:31;38.98;31.68;49.25;;
45478;Laerm;31227;47.986;11.868;2023-02-18T05:07:56;38.02;31.68;49.07;;
45478;Laerm;31227;47.986;11.868;2023-02-18T05:10:21;39.16;32.35;59.43;;
45478;Laerm;31227;47.986;11.868;2023-02-18T05:12:46;38.95;30.89;54.68;;
45478;Laerm;31227;47.986;11.868;2023-02-18T05:15:12;38.86;32.93;49.16;;
45478;Laerm;31227;47.986;11.868;2023-02-18T05:17:37;39.35;31.68;62.61;;
45478;Laerm;31227;47.986;11.868;2023-02-18T05:20:03;38.85;32.35;50.53;;
45478;Laerm;31227;47.986;11.868;2023-02-18T05:22:28;40.50;33.09;63.37;;
45478;Laerm;31227;47.986;11.868;2023-02-18T05:24:53;38.41;32.35;48.90;;
45478;Laerm;31227;47.986;11.868;2023-02-18T05:27:19;41.48;32.93;58.79;;
45478;Laerm;31227;47.986;11.868;2023-02-18T05:29:44;42.86;32.35;63.19;;
45478;Laerm;31227;47.986;11.868;2023-02-18T05:32:09;41.16;34.31;54.36;;
45478;Laerm;31227;47.986;11.868;2023-02-18T05:34:34;40.89;35.66;55.93;;
45478;Laerm;31227;47.986;11.868;2023-02-18T05:36:59;40.53;35.66;50.56;;
45478;Laerm;31227;47.986;11.868;2023-02-18T05:39:24;40.43;34.31;47.84;;
45478;Laerm;31227;47.986;11.868;2023-02-18T05:41:50;41.18;35.04;57.93;;
45478;Laerm;31227;47.986;11.868;2023-02-18T05:44:15;40.44;36.45;55.85;;
45478;Laerm;31227;47.986;11.868;2023-02-18T05:46:59;40.45;33.90;46.93;;
45478;Laerm;31227;47.986;11.868;2023-02-18T05:49:25;40.48;35.94;46.73;;
45478;Laerm;31227;47.986;11.868;2023-02-18T05:51:50;40.41;35.94;46.76;;
45478;Laerm;31227;47.986;11.868;2023-02-18T05:54:16;40.42;34.31;47.75;;
45478;Laerm;31227;47.986;11.868;2023-02-18T05:56:41;40.54;36.34;51.03;;
45478;Laerm;31227;47.986;11.868;2023-02-18T05:59:06;40.62;34.69;54.17;;
45478;Laerm;31227;47.986;11.868;2023-02-18T06:01:31;40.32;36.34;44.83;;
45478;Laerm;31227;47.986;11.868;2023-02-18T06:03:56;40.15;36.69;49.16;;
45478;Laerm;31227;47.986;11.868;2023-02-18T06:06:22;39.95;34.69;43.44;;
45478;Laerm;31227;47.986;11.868;2023-02-18T06:08:47;40.14;34.69;46.15;;
45478;Laerm;31227;47.986;11.868;2023-02-18T06:11:12;39.01;32.35;49.60;;
45478;Laerm;31227;47.986;11.868;2023-02-18T06:13:37;38.38;32.35;44.34;;
45478;Laerm;31227;47.986;11.868;2023-02-18T06:16:02;38.88;32.93;45.27;;
45478;Laerm;31227;47.986;11.868;2023-02-18T06:18:28;39.44;32.93;50.69;;
45478;Laerm;31227;47.986;11.868;2023-02-18T06:20:53;38.72;32.35;45.46;;
45478;Laerm;31227;47.986;11.868;2023-02-18T06:23:18;39.02;32.58;48.39;;
45478;Laerm;31227;47.986;11.868;2023-02-18T06:25:44;40.11;33.44;57.89;;
45478;Laerm;31227;47.986;11.868;2023-02-18T06:28:09;38.99;32.93;47.68;;
45478;Laerm;31227;47.986;11.868;2023-02-18T06:30:34;39.38;32.93;53.53;;
45478;Laerm;31227;47.986;11.868;2023-02-18T06:32:59;39.36;32.93;48.08;;
45478;Laerm;31227;47.986;11.868;2023-02-18T06:35:28;39.24;33.44;49.94;;
45478;Laerm;31227;47.986;11.868;2023-02-18T06:37:53;39.88;32.93;48.03;;
45478;Laerm;31227;47.986;11.868;2023-02-18T06:40:18;40.55;34.31;48.77;;
45478;Laerm;31227;47.986;11.868;2023-02-18T06:42:44;39.69;33.44;45.91;;
45478;Laerm;31227;47.986;11.868;2023-02-18T06:45:09;39.91;33.90;46.84;;
45478;Laerm;31227;47.986;11.868;2023-02-18T06:47:34;40.73;34.31;59.64;;
45478;Laerm;31227;47.986;11.868;2023-02-18T06:49:59;40.96;35.36;53.17;;
45478;Laerm;31227;47.986;11.868;2023-02-18T06:52:25;41.03;35.04;51.92;;
45478;Laerm;31227;47.986;11.868;2023-02-18T06:54:50;42.34;35.36;63.69;;
45478;Laerm;31227;47.986;11.868;2023-02-18T06:57:15;41.21;36.20;54.18;;
45478;Laerm;31227;47.986;11.868;2023-02-18T06:59:40;40.82;35.94;45.36;;
45478;Laerm;31227;47.986;11.868;2023-02-18T07:02:06;41.31;36.20;48.42;;
45478;Laerm;31227;47.986;11.868;2023-02-18T07:04:31;40.14;35.04;45.07;;
45478;Laerm;31227;47.986;11.868;2023-02-18T07:06:56;41.44;35.94;60.07;;
45478;Laerm;31227;47.986;11.868;2023-02-18T07:09:21;44.11;35.66;72.91;;
45478;Laerm;31227;47.986;11.868;2023-02-18T07:11:46;41.40;35.94;59.26;;
45478;Laerm;31227;47.986;11.868;2023-02-18T07:14:12;41.12;35.01;53.26;;
45478;Laerm;31227;47.986;11.868;2023-02-18T07:16:37;42.03;36.45;53.78;;
45478;Laerm;31227;47.986;11.868;2023-02-18T07:19:02;40.79;36.20;47.44;;
45478;Laerm;31227;47.986;11.868;2023-02-18T07:21:28;41.41;36.34;50.03;;
45478;Laerm;31227;47.986;11.868;2023-02-18T07:23:53;40.99;32.93;52.30;;
45478;Laerm;31227;47.986;11.868;2023-02-18T07:26:18;41.05;33.44;48.43;;
45478;Laerm;31227;47.986;11.868;2023-02-18T07:28:43;41.19;35.04;55.42;;
45478;Laerm;31227;47.986;11.868;2023-02-18T07:31:09;40.46;33.90;49.23;;
45478;Laerm;31227;47.986;11.868;2023-02-18T07:33:34;41.00;33.90;48.37;;
45478;Laerm;31227;47.986;11.868;2023-02-18T07:35:59;41.70;33.90;58.78;;
45478;Laerm;31227;47.986;11.868;2023-02-18T07:38:26;43.05;34.69;56.67;;
45478;Laerm;31227;47.986;11.868;2023-02-18T07:40:51;40.87;35.31;47.90;;
45478;Laerm;31227;47.986;11.868;2023-02-18T07:43:17;40.13;33.90;50.33;;
45478;Laerm;31227;47.986;11.868;2023-02-18T07:45:42;40.81;34.31;59.51;;
45478;Laerm;31227;47.986;11.868;2023-02-18T07:48:08;40.66;33.90;48.94;;
45478;Laerm;31227;47.986;11.868;2023-02-18T07:50:33;40.64;34.69;47.76;;
45478;Laerm;31227;47.986;11.868;2023-02-18T07:53:01;40.98;34.69;49.40;;
45478;Laerm;31227;47.986;11.868;2023-02-18T07:55:26;41.04;34.69;51.87;;
45478;Laerm;31227;47.986;11.868;2023-02-18T07:58:11;41.07;34.69;51.21;;
45478;Laerm;31227;47.986;11.868;2023-02-18T08:00:37;40.97;33.90;48.45;;
45478;Laerm;31227;47.986;11.868;2023-02-18T08:03:02;41.29;34.31;56.44;;
45478;Laerm;31227;47.986;11.868;2023-02-18T08:05:27;43.24;33.90;64.89;;
45478;Laerm;31227;47.986;11.868;2023-02-18T08:07:53;41.00;34.69;57.19;;
45478;Laerm;31227;47.986;11.868;2023-02-18T08:10:18;41.09;34.31;53.04;;
45478;Laerm;31227;47.986;11.868;2023-02-18T08:12:43;39.24;30.89;48.37;;
45478;Laerm;31227;47.986;11.868;2023-02-18T08:15:08;40.78;34.31;48.58;;
45478;Laerm;31227;47.986;11.868;2023-02-18T08:17:33;40.51;33.44;47.00;;
45478;Laerm;31227;47.986;11.868;2023-02-18T08:19:59;40.75;33.90;47.32;;
45478;Laerm;31227;47.986;11.868;2023-02-18T08:22:24;40.33;33.44;55.37;;
45478;Laerm;31227;47.986;11.868;2023-02-18T08:24:49;40.72;32.93;53.59;;
45478;Laerm;31227;47.986;11.868;2023-02-18T08:27:14;40.41;33.90;47.44;;
45478;Laerm;31227;47.986;11.868;2023-02-18T08:29:40;41.66;31.68;58.64;;
45478;Laerm;31227;47.986;11.868;2023-02-18T08:32:05;43.89;33.44;65.53;;
45478;Laerm;31227;47.986;11.868;2023-02-18T08:34:30;40.65;34.31;44.97;;
45478;Laerm;31227;47.986;11.868;2023-02-18T08:36:55;40.63;33.44;61.66;;
45478;Laerm;31227;47.986;11.868;2023-02-18T08:39:20;41.38;35.94;52.95;;
45478;Laerm;31227;47.986;11.868;2023-02-18T08:41:46;40.83;33.90;51.86;;
45478;Laerm;31227;47.986;11.868;2023-02-18T08:44:11;40.66;33.44;50.41;;
45478;Laerm;31227;47.986;11.868;2023-02-18T08:46:36;40.48;35.04;49.92;;
45478;Laerm;31227;47.986;11.868;2023-02-18T08:49:02;41.51;34.31;55.53;;
45478;Laerm;31227;47.986;11.868;2023-02-18T08:51:27;40.33;34.31;46.15;;
45478;Laerm;31227;47.986;11.868;2023-02-18T08:53:52;40.51;34.31;45.91;;
45478;Laerm;31227;47.986;11.868;2023-02-18T08:56:18;41.28;35.04;46.71;;
45478;Laerm;31227;47.986;11.868;2023-02-18T08:58:43;41.57;35.36;58.71;;
45478;Laerm;31227;47.986;11.868;2023-02-18T09:01:09;42.37;35.04;55.20;;
45478;Laerm;31227;47.986;11.868;2023-02-18T09:03:35;41.40;35.94;56.94;;
45478;Laerm;31227;47.986;11.868;2023-02-18T09:06:00;41.35;35.94;49.47;;
45478;Laerm;31227;47.986;11.868;2023-02-18T09:08:26;41.81;35.66;53.06;;
45478;Laerm;31227;47.986;11.868;2023-02-18T09:10:58;41.23;33.90;56.65;;
45478;Laerm;31227;47.986;11.868;2023-02-18T09:13:24;42.08;34.69;58.51;;
45478;Laerm;31227;47.986;11.868;2023-02-18T09:16:00;41.90;34.69;64.03;;
45478;Laerm;31227;47.986;11.868;2023-02-18T09:18:25;44.60;36.20;63.26;;
45478;Laerm;31227;47.986;11.868;2023-02-18T09:20:51;42.06;34.31;64.38;;
45478;Laerm;31227;47.986;11.868;2023-02-18T09:23:16;43.93;35.66;63.62;;
45478;Laerm;31227;47.986;11.868;2023-02-18T09:25:41;44.51;34.69;64.24;;
45478;Laerm;31227;47.986;11.868;2023-02-18T09:28:07;41.33;34.31;53.27;;
45478;Laerm;31227;47.986;11.868;2023-02-18T09:30:32;40.42;33.90;45.66;;
45478;Laerm;31227;47.986;11.868;2023-02-18T09:32:57;41.65;35.66;57.44;;
45478;Laerm;31227;47.986;11.868;2023-02-18T09:35:22;40.07;33.90;49.19;;
45478;Laerm;31227;47.986;11.868;2023-02-18T09:37:47;41.25;34.69;50.76;;
45478;Laerm;31227;47.986;11.868;2023-02-18T09:40:23;40.58;34.31;47.63;;
45478;Laerm;31227;47.986;11.868;2023-02-18T09:42:49;42.58;34.69;64.55;;
45478;Laerm;31227;47.986;11.868;2023-02-18T09:45:15;41.70;35.04;51.58;;
45478;Laerm;31227;47.986;11.868;2023-02-18T09:47:41;41.28;35.36;53.77;;
45478;Laerm;31227;47.986;11.868;2023-02-18T09:50:17;41.36;35.36;51.44;;
45478;Laerm;31227;47.986;11.868;2023-02-18T09:52:43;41.50;34.69;52.10;;
45478;Laerm;31227;47.986;11.868;2023-02-18T09:55:20;40.47;33.90;45.80;;
45478;Laerm;31227;47.986;11.868;2023-02-18T09:58:20;41.33;34.69;52.70;;
45478;Laerm;31227;47.986;11.868;2023-02-18T10:00:39;42.28;35.94;60.03;;
45478;Laerm;31227;47.986;11.868;2023-02-18T10:03:07;41.59;33.90;61.41;;
45478;Laerm;31227;47.986;11.868;2023-02-18T10:05:34;41.02;33.44;60.63;;
45478;Laerm;31227;47.986;11.868;2023-02-18T10:08:06;41.93;34.34;66.22;;
45478;Laerm;31227;47.986;11.868;2023-02-18T10:10:43;42.72;34.31;62.79;;
45478;Laerm;31227;47.986;11.868;2023-02-18T10:15:57;42.98;36.34;61.65;;
45478;Laerm;31227;47.986;11.868;2023-02-18T10:18:39;41.72;35.94;61.69;;
45478;Laerm;31227;47.986;11.868;2023-02-18T10:21:06;41.27;34.69;57.82;;
45478;Laerm;31227;47.986;11.868;2023-02-18T10:23:33;41.16;35.66;54.56;;
45478;Laerm;31227;47.986;11.868;2023-02-18T10:26:00;41.04;35.36;52.47;;
45478;Laerm;31227;47.986;11.868;2023-02-18T10:28:27;41.90;34.69;56.82;;
45478;Laerm;31227;47.986;11.868;2023-02-18T10:31:01;41.77;34.31;55.57;;
45478;Laerm;31227;47.986;11.868;2023-02-18T10:33:31;40.62;33.44;59.39;;
45478;Laerm;31227;47.986;11.868;2023-02-18T10:38:31;40.61;34.31;47.38;;
45478;Laerm;31227;47.986;11.868;2023-02-18T10:41:07;40.30;34.69;46.23;;
45478;Laerm;31227;47.986;11.868;2023-02-18T10:43:43;40.66;34.69;51.18;;
45478;Laerm;31227;47.986;11.868;2023-02-18T10:49:00;40.84;35.04;51.56;;
45478;Laerm;31227;47.986;11.868;2023-02-18T10:51:29;41.70;33.44;65.23;;
45478;Laerm;31227;47.986;11.868;2023-02-18T10:53:56;40.47;34.31;52.38;;
45478;Laerm;31227;47.986;11.868;2023-02-18T10:59:09;40.49;35.04;63.12;;
45478;Laerm;31227;47.986;11.868;2023-02-18T11:01:35;41.77;35.04;58.18;;
45478;Laerm;31227;47.986;11.868;2023-02-18T11:04:11;41.94;35.36;58.58;;
45478;Laerm;31227;47.986;11.868;2023-02-18T11:06:38;40.73;35.04;49.73;;
45478;Laerm;31227;47.986;11.868;2023-02-18T11:09:03;40.20;34.31;54.49;;
45478;Laerm;31227;47.986;11.868;2023-02-18T11:16:40;41.49;33.90;54.22;;
45478;Laerm;31227;47.986;11.868;2023-02-18T11:19:29;40.57;35.04;51.26;;
45478;Laerm;31227;47.986;11.868;2023-02-18T11:21:51;41.15;35.04;61.01;;
45478;Laerm;31227;47.986;11.868;2023-02-18T11:24:30;41.47;35.36;57.05;;
45478;Laerm;31227;47.986;11.868;2023-02-18T11:26:55;41.41;34.69;54.61;;
45478;Laerm;31227;47.986;11.868;2023-02-18T11:29:21;41.46;34.69;59.90;;
45478;Laerm;31227;47.986;11.868;2023-02-18T11:31:52;40.67;35.04;55.39;;
45478;Laerm;31227;47.986;11.868;2023-02-18T11:34:19;40.66;33.90;57.04;;
45478;Laerm;31227;47.986;11.868;2023-02-18T11:36:46;40.35;34.69;44.62;;
45478;Laerm;31227;47.986;11.868;2023-02-18T11:39:19;41.26;35.36;58.05;;
45478;Laerm;31227;47.986;11.868;2023-02-18T11:41:47;40.28;35.04;54.81;;
45478;Laerm;31227;47.986;11.868;2023-02-18T11:44:31;40.44;34.69;45.83;;
45478;Laerm;31227;47.986;11.868;2023-02-18T11:49:39;42.59;34.69;60.90;;
45478;Laerm;31227;47.986;11.868;2023-02-18T11:54:39;41.35;34.31;55.17;;
45478;Laerm;31227;47.986;11.868;2023-02-18T11:57:05;43.49;36.20;63.28;;
45478;Laerm;31227;47.986;11.868;2023-02-18T11:59:34;40.69;35.66;52.25;;
45478;Laerm;31227;47.986;11.868;2023-02-18T12:04:45;40.76;34.69;49.20;;
45478;Laerm;31227;47.986;11.868;2023-02-18T12:07:23;43.27;35.04;63.38;;
45478;Laerm;31227;47.986;11.868;2023-02-18T12:09:50;41.00;33.90;49.29;;
45478;Laerm;31227;47.986;11.868;2023-02-18T12:14:47;40.97;35.36;56.37;;
45478;Laerm;31227;47.986;11.868;2023-02-18T12:22:41;43.14;35.36;63.87;;
45478;Laerm;31227;47.986;11.868;2023-02-18T12:27:55;42.12;35.04;58.03;;
45478;Laerm;31227;47.986;11.868;2023-02-18T12:36:09;41.16;35.36;59.18;;
45478;Laerm;31227;47.986;11.868;2023-02-18T12:41:51;42.00;35.94;53.32;;
45478;Laerm;31227;47.986;11.868;2023-02-18T12:51:51;40.92;35.66;51.94;;
45478;Laerm;31227;47.986;11.868;2023-02-18T12:57:12;47.68;36.69;69.48;;
45478;Laerm;31227;47.986;11.868;2023-02-18T13:04:57;43.18;35.94;68.05;;
45478;Laerm;31227;47.986;11.868;2023-02-18T13:15:37;43.11;34.69;69.32;;
45478;Laerm;31227;47.986;11.868;2023-02-18T13:18:02;41.90;35.04;61.28;;
45478;Laerm;31227;47.986;11.868;2023-02-18T13:23:06;41.96;34.69;56.34;;
45478;Laerm;31227;47.986;11.868;2023-02-18T13:25:37;41.79;35.66;60.93;;
45478;Laerm;31227;47.986;11.868;2023-02-18T13:28:06;40.39;35.36;47.59;;
45478;Laerm;31227;47.986;11.868;2023-02-18T13:30:42;41.25;35.36;59.04;;
45478;Laerm;31227;47.986;11.868;2023-02-18T13:33:12;41.92;35.04;58.27;;
45478;Laerm;31227;47.986;11.868;2023-02-18T13:38:23;44.10;36.45;74.07;;
45478;Laerm;31227;47.986;11.868;2023-02-18T13:40:52;41.12;34.69;53.98;;
45478;Laerm;31227;47.986;11.868;2023-02-18T13:46:02;43.99;35.36;64.53;;
45478;Laerm;31227;47.986;11.868;2023-02-18T13:48:27;45.26;35.66;69.96;;
45478;Laerm;31227;47.986;11.868;2023-02-18T13:50:53;41.74;34.69;57.65;;
45478;Laerm;31227;47.986;11.868;2023-02-18T13:53:24;42.63;35.36;58.17;;
45478;Laerm;31227;47.986;11.868;2023-02-18T13:58:22;42.70;35.36;59.81;;
45478;Laerm;31227;47.986;11.868;2023-02-18T14:01:00;41.58;35.04;61.85;;
45478;Laerm;31227;47.986;11.868;2023-02-18T14:06:00;40.41;35.04;47.44;;
45478;Laerm;31227;47.986;11.868;2023-02-18T14:08:30;40.94;35.04;57.79;;
45478;Laerm;31227;47.986;11.868;2023-02-18T14:13:40;42.77;35.04;57.36;;
45478;Laerm;31227;47.986;11.868;2023-02-18T14:16:06;42.26;35.36;60.05;;
45478;Laerm;31227;47.986;11.868;2023-02-18T14:18:33;41.15;35.36;58.81;;
45478;Laerm;31227;47.986;11.868;2023-02-18T14:21:18;41.76;34.69;60.83;;
45478;Laerm;31227;47.986;11.868;2023-02-18T14:33:36;43.04;35.36;61.65;;
45478;Laerm;31227;47.986;11.868;2023-02-18T14:36:09;41.62;34.31;57.73;;
45478;Laerm;31227;47.986;11.868;2023-02-18T14:38:53;41.97;35.04;61.12;;
45478;Laerm;31227;47.986;11.868;2023-02-18T14:43:54;46.71;36.69;69.66;;
45478;Laerm;31227;47.986;11.868;2023-02-18T14:49:15;42.72;35.04;60.81;;
45478;Laerm;31227;47.986;11.868;2023-02-18T14:51:42;45.67;35.04;68.45;;
45478;Laerm;31227;47.986;11.868;2023-02-18T14:54:12;43.31;35.36;68.52;;
45478;Laerm;31227;47.986;11.868;2023-02-18T14:56:38;43.94;34.69;63.93;;
45478;Laerm;31227;47.986;11.868;2023-02-18T14:59:09;42.18;35.36;67.75;;
45478;Laerm;31227;47.986;11.868;2023-02-18T15:01:36;44.86;35.01;72.75;;
45478;Laerm;31227;47.986;11.868;2023-02-18T15:04:03;44.14;35.04;63.36;;
45478;Laerm;31227;47.986;11.868;2023-02-18T15:06:30;40.61;34.69;51.93;;
45478;Laerm;31227;47.986;11.868;2023-02-18T15:08:55;39.57;34.31;48.48;;
45478;Laerm;31227;47.986;11.868;2023-02-18T15:11:21;40.68;34.69;56.09;;
45478;Laerm;31227;47.986;11.868;2023-02-18T15:16:36;43.35;35.04;65.53;;
45478;Laerm;31227;47.986;11.868;2023-02-18T15:19:03;42.54;35.04;59.50;;
45478;Laerm;31227;47.986;11.868;2023-02-18T15:23:57;46.77;35.36;65.57;;
45478;Laerm;31227;47.986;11.868;2023-02-18T15:26:23;41.45;34.69;63.93;;
45478;Laerm;31227;47.986;11.868;2023-02-18T15:31:24;40.61;34.69;57.28;;
45478;Laerm;31227;47.986;11.868;2023-02-18T15:33:49;41.67;34.69;60.93;;
45478;Laerm;31227;47.986;11.868;2023-02-18T15:36:16;41.57;34.69;56.96;;
45478;Laerm;31227;47.986;11.868;2023-02-18T15:38:41;41.89;33.90;63.53;;
45478;Laerm;31227;47.986;11.868;2023-02-18T15:41:09;41.76;35.04;62.92;;
45478;Laerm;31227;47.986;11.868;2023-02-18T15:43:35;41.65;35.04;57.34;;
45478;Laerm;31227;47.986;11.868;2023-02-18T15:46:01;42.32;35.86;61.10;;
45478;Laerm;31227;47.986;11.868;2023-02-18T15:48:36;45.96;35.94;67.36;;
45478;Laerm;31227;47.986;11.868;2023-02-18T15:51:04;48.80;36.20;73.93;;